createdAt,value
2023-01-29T00:00:09.528Z,19.50
2023-01-29T00:02:39.230Z,20.75
2023-01-29T00:05:25.531Z,20.80
2023-01-29T00:07:53.326Z,20.83
2023-01-29T00:10:19.855Z,20.67
2023-01-29T00:12:46.371Z,20.40
2023-01-29T00:15:12.942Z,19.67
2023-01-29T00:17:42.315Z,20.48
2023-01-29T00:20:09.583Z,19.63
2023-01-29T00:22:36.057Z,19.98
2023-01-29T00:25:02.777Z,19.80
2023-01-29T00:27:29.690Z,19.73
2023-01-29T00:29:56.192Z,19.52
2023-01-29T00:32:22.708Z,19.35
2023-01-29T00:34:49.186Z,20.55
2023-01-29T00:37:15.664Z,20.85
2023-01-29T00:39:48.107Z,19.90
2023-01-29T00:42:16.080Z,20.27
2023-01-29T00:44:43.715Z,19.33
2023-01-29T00:47:10.208Z,20.08
2023-01-29T00:49:36.704Z,21.10
2023-01-29T00:52:06.139Z,19.90
2023-01-29T00:54:33.236Z,20.45
2023-01-29T00:57:00.357Z,20.77
2023-01-29T00:59:26.991Z,20.23
2023-01-29T01:01:53.506Z,21.23
2023-01-29T01:04:20.059Z,21.10
2023-01-29T01:06:46.628Z,20.70
2023-01-29T01:09:13.111Z,19.90
2023-01-29T01:11:39.640Z,20.35
2023-01-29T01:14:06.135Z,20.40
2023-01-29T01:16:32.679Z,20.23
2023-01-29T01:18:59.415Z,19.60
2023-01-29T01:21:26.004Z,20.80
2023-01-29T01:23:52.497Z,21.20
2023-01-29T01:26:22.001Z,20.77
2023-01-29T01:28:48.712Z,20.38
2023-01-29T01:31:15.210Z,20.50
2023-01-29T01:33:41.848Z,19.08
2023-01-29T01:36:08.512Z,20.08
2023-01-29T01:38:36.655Z,21.95
2023-01-29T01:41:03.155Z,20.25
2023-01-29T01:43:56.502Z,21.05
2023-01-29T01:46:35.310Z,20.60
2023-01-29T01:49:07.303Z,20.63
2023-01-29T01:51:37.479Z,20.02
2023-01-29T01:54:07.955Z,21.15
2023-01-29T01:56:41.015Z,21.30
2023-01-29T01:59:10.648Z,21.15
2023-01-29T02:01:37.578Z,20.95
2023-01-29T02:04:09.900Z,20.88
2023-01-29T02:06:39.598Z,20.50
2023-01-29T02:09:17.542Z,21.45
2023-01-29T02:11:44.034Z,20.90
2023-01-29T02:14:10.920Z,21.80
2023-01-29T02:16:37.637Z,22.65
2023-01-29T02:19:17.288Z,21.58
2023-01-29T02:22:08.044Z,22.15
2023-01-29T02:27:22.169Z,22.13
2023-01-29T02:30:05.869Z,21.15
2023-01-29T02:32:56.907Z,21.30
2023-01-29T02:35:44.194Z,21.88
2023-01-29T02:38:35.160Z,20.95
2023-01-29T02:41:10.597Z,21.52
2023-01-29T02:43:50.792Z,22.50
2023-01-29T02:46:47.082Z,20.85
2023-01-29T02:49:23.936Z,20.58
2023-01-29T02:52:10.032Z,21.50
2023-01-29T02:54:56.845Z,19.90
2023-01-29T02:57:27.002Z,20.60
2023-01-29T03:00:04.380Z,21.25
2023-01-29T03:02:55.586Z,20.58
2023-01-29T03:05:28.888Z,19.50
2023-01-29T03:07:59.699Z,19.60
2023-01-29T03:10:34.068Z,19.75
2023-01-29T03:13:06.595Z,20.63
2023-01-29T03:15:39.215Z,20.23
2023-01-29T03:18:12.620Z,19.52
2023-01-29T03:20:50.616Z,20.10
2023-01-29T03:23:29.471Z,19.52
2023-01-29T03:25:58.865Z,19.55
2023-01-29T03:28:26.116Z,19.48
2023-01-29T03:30:55.182Z,19.73
2023-01-29T03:33:24.084Z,19.52
2023-01-29T03:35:55.375Z,19.60
2023-01-29T03:38:21.930Z,19.40
2023-01-29T03:40:57.102Z,18.85
2023-01-29T03:43:34.100Z,18.88
2023-01-29T03:46:08.278Z,19.67
2023-01-29T03:48:41.899Z,19.95
2023-01-29T03:51:14.520Z,19.70
2023-01-29T03:54:02.042Z,19.42
2023-01-29T03:56:35.116Z,18.73
2023-01-29T03:59:16.169Z,19.17
2023-01-29T04:01:49.010Z,19.42
2023-01-29T04:04:22.726Z,19.95
2023-01-29T04:06:51.144Z,19.77
2023-01-29T04:09:20.589Z,19.77
2023-01-29T04:11:50.615Z,19.40
2023-01-29T04:14:17.656Z,18.38
2023-01-29T04:16:52.521Z,19.35
2023-01-29T04:19:19.052Z,20.00
2023-01-29T04:21:48.735Z,19.13
2023-01-29T04:24:15.524Z,19.20
2023-01-29T04:26:42.026Z,19.30
2023-01-29T04:29:33.494Z,18.75
2023-01-29T04:32:11.357Z,17.63
2023-01-29T04:34:56.713Z,19.33
2023-01-29T04:37:30.022Z,18.42
2023-01-29T04:40:15.476Z,18.88
2023-01-29T04:43:01.852Z,19.42
2023-01-29T04:45:34.725Z,18.08
2023-01-29T04:48:27.943Z,20.02
2023-01-29T04:51:13.103Z,18.17
2023-01-29T04:54:25.984Z,18.85
2023-01-29T04:56:52.376Z,18.33
2023-01-29T04:59:29.519Z,18.77
2023-01-29T05:01:56.318Z,19.23
2023-01-29T05:04:23.775Z,18.77
2023-01-29T05:06:52.015Z,18.52
2023-01-29T05:09:19.790Z,19.10
2023-01-29T05:11:47.750Z,18.88
2023-01-29T05:14:17.234Z,19.50
2023-01-29T05:16:46.382Z,18.67
2023-01-29T05:19:14.885Z,19.73
2023-01-29T05:21:44.582Z,18.58
2023-01-29T05:24:17.019Z,18.27
2023-01-29T05:26:45.947Z,18.70
2023-01-29T05:29:12.455Z,19.73
2023-01-29T05:31:38.948Z,19.15
2023-01-29T05:34:05.597Z,17.80
2023-01-29T05:36:32.056Z,18.30
2023-01-29T05:38:58.573Z,19.23
2023-01-29T05:41:25.308Z,19.60
2023-01-29T05:43:51.838Z,19.27
2023-01-29T05:46:18.336Z,18.98
2023-01-29T05:48:44.931Z,19.05
2023-01-29T05:51:11.451Z,19.08
2023-01-29T05:53:38.015Z,18.05
2023-01-29T05:56:05.520Z,19.50
2023-01-29T05:58:32.906Z,19.27
2023-01-29T06:01:17.715Z,19.63
2023-01-29T06:03:44.597Z,18.90
2023-01-29T06:06:11.477Z,18.27
2023-01-29T06:08:38.425Z,18.95
2023-01-29T06:11:07.472Z,18.85
2023-01-29T06:13:34.451Z,18.85
2023-01-29T06:16:01.208Z,18.00
2023-01-29T06:18:27.663Z,19.17
2023-01-29T06:20:54.137Z,19.38
2023-01-29T06:23:21.104Z,18.42
2023-01-29T06:25:47.755Z,18.98
2023-01-29T06:28:14.245Z,18.33
2023-01-29T06:30:40.827Z,19.55
2023-01-29T06:33:07.335Z,19.05
2023-01-29T06:35:33.821Z,18.60
2023-01-29T06:38:00.352Z,18.75
2023-01-29T06:40:26.869Z,18.02
2023-01-29T06:42:53.328Z,18.60
2023-01-29T06:45:19.890Z,18.10
2023-01-29T06:47:46.397Z,17.80
2023-01-29T06:50:12.958Z,19.05
2023-01-29T06:52:39.515Z,18.98
2023-01-29T06:55:06.433Z,18.17
2023-01-29T06:57:32.929Z,18.17
2023-01-29T06:59:59.397Z,19.35
2023-01-29T07:02:25.863Z,18.98
2023-01-29T07:04:52.412Z,18.42
2023-01-29T07:07:18.911Z,17.92
2023-01-29T07:09:45.404Z,18.25
2023-01-29T07:12:11.994Z,18.40
2023-01-29T07:14:38.486Z,19.40
2023-01-29T07:17:04.938Z,19.83
2023-01-29T07:19:31.409Z,19.33
2023-01-29T07:21:57.887Z,18.92
2023-01-29T07:24:24.541Z,18.70
2023-01-29T07:26:51.038Z,18.83
2023-01-29T07:29:17.488Z,19.60
2023-01-29T07:31:43.995Z,19.63
2023-01-29T07:34:10.513Z,18.42
2023-01-29T07:36:36.972Z,19.38
2023-01-29T07:39:03.573Z,18.15
2023-01-29T07:41:30.045Z,17.58
2023-01-29T07:43:56.503Z,17.83
2023-01-29T07:46:22.973Z,18.95
2023-01-29T07:48:49.588Z,18.35
2023-01-29T07:51:16.104Z,21.27
2023-01-29T07:53:42.587Z,27.27
2023-01-29T07:56:09.121Z,30.40
2023-01-29T07:58:36.754Z,21.42
2023-01-29T08:01:07.119Z,19.17
2023-01-29T08:03:33.657Z,18.50
2023-01-29T08:06:00.172Z,17.70
2023-01-29T08:08:26.655Z,17.67
2023-01-29T08:10:53.115Z,18.23
2023-01-29T08:13:19.563Z,17.70
2023-01-29T08:15:46.136Z,18.90
2023-01-29T08:18:15.177Z,20.23
2023-01-29T08:20:41.627Z,21.92
2023-01-29T08:23:13.941Z,22.63
2023-01-29T08:25:40.685Z,18.67
2023-01-29T08:28:07.428Z,19.20
2023-01-29T08:30:34.395Z,17.25
2023-01-29T08:33:01.510Z,17.75
2023-01-29T08:35:28.093Z,17.65
2023-01-29T08:37:55.521Z,17.23
2023-01-29T08:40:22.891Z,18.20
2023-01-29T08:42:49.667Z,16.92
2023-01-29T08:45:16.461Z,16.08
2023-01-29T08:47:49.888Z,15.13
2023-01-29T08:50:17.777Z,15.63
2023-01-29T08:52:45.150Z,14.70
2023-01-29T08:55:12.399Z,14.55
2023-01-29T08:57:40.105Z,15.05
2023-01-29T09:00:07.781Z,14.32
2023-01-29T09:02:34.282Z,16.27
2023-01-29T09:05:00.821Z,14.95
2023-01-29T09:07:29.967Z,16.27
2023-01-29T09:09:56.652Z,15.77
2023-01-29T09:12:23.322Z,16.27
2023-01-29T09:14:49.825Z,15.68
2023-01-29T09:17:16.284Z,17.55
2023-01-29T09:19:43.051Z,15.75
2023-01-29T09:22:11.628Z,15.52
2023-01-29T09:24:38.426Z,14.90
2023-01-29T09:27:05.040Z,15.05
2023-01-29T09:29:33.050Z,15.32
2023-01-29T09:32:00.663Z,15.50
2023-01-29T09:34:27.161Z,15.27
2023-01-29T09:36:53.611Z,14.38
2023-01-29T09:39:22.176Z,14.85
2023-01-29T09:41:54.609Z,15.25
2023-01-29T09:44:27.504Z,14.45
2023-01-29T09:46:54.976Z,14.65
2023-01-29T09:49:24.728Z,14.88
2023-01-29T09:51:58.920Z,14.52
2023-01-29T09:55:02.509Z,14.88
2023-01-29T09:57:37.922Z,14.30
2023-01-29T10:00:04.975Z,15.38
2023-01-29T10:02:48.564Z,15.48
2023-01-29T10:05:21.656Z,15.73
2023-01-29T10:08:03.777Z,15.43
2023-01-29T10:10:30.264Z,14.73
2023-01-29T10:13:21.326Z,15.05
2023-01-29T10:16:00.385Z,15.40
2023-01-29T10:18:41.812Z,15.25
2023-01-29T10:21:41.908Z,15.13
2023-01-29T10:24:59.807Z,15.13
2023-01-29T10:27:34.688Z,15.25
2023-01-29T10:30:03.385Z,16.33
2023-01-29T10:32:31.043Z,15.48
2023-01-29T10:35:03.547Z,16.13
2023-01-29T10:37:43.308Z,14.88
2023-01-29T10:40:34.065Z,15.25
2023-01-29T10:43:18.001Z,16.20
2023-01-29T10:46:03.809Z,16.02
2023-01-29T10:48:30.201Z,15.55
2023-01-29T10:51:25.944Z,15.35
2023-01-29T10:54:02.436Z,18.38
2023-01-29T10:56:44.309Z,16.63
2023-01-29T10:59:16.874Z,17.90
2023-01-29T11:01:44.532Z,16.17
2023-01-29T11:04:12.742Z,16.13
2023-01-29T11:06:39.238Z,15.48
2023-01-29T11:12:16.236Z,16.73
2023-01-29T11:14:49.100Z,18.50
2023-01-29T11:17:21.420Z,19.77
2023-01-29T11:19:49.997Z,20.33
2023-01-29T11:22:20.216Z,22.05
2023-01-29T11:24:47.459Z,19.75
2023-01-29T11:27:26.194Z,17.75
2023-01-29T11:29:53.426Z,17.33
2023-01-29T11:32:22.903Z,17.63
2023-01-29T11:35:04.965Z,17.13
2023-01-29T11:37:33.752Z,16.83
2023-01-29T11:40:00.271Z,15.18
2023-01-29T11:42:31.119Z,16.45
2023-01-29T11:44:57.800Z,16.65
2023-01-29T11:47:29.229Z,17.05
2023-01-29T11:49:58.662Z,19.08
2023-01-29T11:52:39.761Z,18.40
2023-01-29T11:55:17.506Z,19.33
2023-01-29T11:57:46.928Z,17.92
2023-01-29T12:00:23.915Z,19.25
2023-01-29T12:02:54.887Z,20.70
2023-01-29T12:05:23.646Z,19.58
2023-01-29T12:07:52.403Z,23.52
2023-01-29T12:10:34.167Z,17.98
2023-01-29T12:13:09.579Z,18.30
2023-01-29T12:15:40.432Z,16.52
2023-01-29T12:18:32.005Z,16.20
2023-01-29T12:21:02.365Z,17.15
2023-01-29T12:26:22.141Z,18.15
2023-01-29T12:29:00.194Z,17.50
2023-01-29T12:31:38.480Z,20.35
2023-01-29T12:34:21.403Z,18.00
2023-01-29T12:36:55.604Z,19.42
2023-01-29T12:39:22.470Z,17.58
2023-01-29T12:41:59.988Z,17.48
2023-01-29T12:44:42.491Z,17.17
2023-01-29T12:47:17.121Z,17.30
2023-01-29T12:49:46.650Z,17.13
2023-01-29T12:52:23.852Z,16.95
2023-01-29T12:54:59.265Z,18.10
2023-01-29T12:57:40.320Z,18.38
2023-01-29T13:00:20.543Z,17.05
2023-01-29T13:02:51.254Z,17.83
2023-01-29T13:05:26.265Z,17.35
2023-01-29T13:07:58.017Z,18.05
2023-01-29T13:10:32.701Z,18.05
2023-01-29T13:13:05.025Z,17.48
2023-01-29T13:15:36.529Z,17.77
2023-01-29T13:18:31.273Z,18.17
2023-01-29T13:21:01.168Z,16.95
2023-01-29T13:23:37.112Z,17.45
2023-01-29T13:26:04.262Z,17.65
2023-01-29T13:28:30.744Z,17.67
2023-01-29T13:31:29.722Z,17.88
2023-01-29T13:34:04.384Z,21.60
2023-01-29T13:36:31.348Z,21.60
2023-01-29T13:42:16.077Z,19.00
2023-01-29T13:44:47.920Z,20.50
2023-01-29T13:47:23.720Z,20.38
2023-01-29T13:49:59.072Z,18.98
2023-01-29T13:52:41.776Z,17.92
2023-01-29T13:55:32.547Z,18.08
2023-01-29T13:58:06.123Z,17.02
2023-01-29T14:00:35.561Z,17.25
2023-01-29T14:03:01.981Z,17.60
2023-01-29T14:05:31.637Z,17.50
2023-01-29T14:08:14.142Z,18.00
2023-01-29T14:10:43.896Z,18.42
2023-01-29T14:13:17.165Z,17.05
2023-01-29T14:15:45.184Z,17.83
2023-01-29T14:18:16.258Z,18.30
2023-01-29T14:21:02.548Z,18.33
2023-01-29T14:23:47.004Z,16.90
2023-01-29T14:26:26.244Z,17.55
2023-01-29T14:29:06.535Z,17.77
2023-01-29T14:31:47.708Z,17.63
2023-01-29T14:34:23.536Z,17.88
2023-01-29T14:36:53.488Z,18.20
2023-01-29T14:39:36.988Z,19.52
2023-01-29T14:42:13.650Z,18.27
2023-01-29T14:44:46.246Z,18.30
2023-01-29T14:47:38.739Z,17.90
2023-01-29T14:50:29.740Z,18.52
2023-01-29T14:53:01.915Z,17.65
2023-01-29T14:55:38.056Z,18.40
2023-01-29T14:58:04.941Z,17.80
2023-01-29T15:00:35.004Z,18.67
2023-01-29T15:03:02.828Z,17.38
2023-01-29T15:05:36.426Z,17.95
2023-01-29T15:08:23.322Z,18.02
2023-01-29T15:10:54.698Z,17.73
2023-01-29T15:13:35.831Z,17.98
2023-01-29T15:16:13.422Z,17.98
2023-01-29T15:18:43.514Z,18.88
2023-01-29T15:21:15.075Z,18.70
2023-01-29T15:23:42.570Z,18.33
2023-01-29T15:26:17.420Z,17.45
2023-01-29T15:28:47.209Z,20.20
2023-01-29T15:31:18.557Z,18.20
2023-01-29T15:33:47.165Z,18.00
2023-01-29T15:36:21.841Z,18.58
2023-01-29T15:38:48.623Z,18.75
2023-01-29T15:41:18.933Z,18.42
2023-01-29T15:43:50.879Z,18.00
2023-01-29T15:46:33.706Z,17.45
2023-01-29T15:49:09.536Z,17.92
2023-01-29T15:51:39.465Z,18.00
2023-01-29T15:54:16.894Z,17.33
2023-01-29T15:56:47.822Z,17.65
2023-01-29T15:59:22.561Z,18.17
2023-01-29T16:01:53.199Z,17.55
2023-01-29T16:04:30.530Z,19.55
2023-01-29T16:06:58.249Z,19.88
2023-01-29T16:09:26.289Z,17.52
2023-01-29T16:11:54.438Z,19.38
2023-01-29T16:14:23.265Z,18.58
2023-01-29T16:16:50.123Z,18.27
2023-01-29T16:19:28.837Z,18.83
2023-01-29T16:22:07.167Z,21.52
2023-01-29T16:24:36.278Z,20.02
2023-01-29T16:27:10.899Z,20.02
2023-01-29T16:29:37.533Z,21.55
2023-01-29T16:32:04.924Z,20.48
2023-01-29T16:34:35.069Z,19.27
2023-01-29T16:37:04.430Z,21.40
2023-01-29T16:39:37.429Z,20.55
2023-01-29T16:42:10.096Z,19.05
2023-01-29T16:44:37.978Z,18.38
2023-01-29T16:47:16.006Z,19.58
2023-01-29T16:49:45.734Z,19.30
2023-01-29T16:52:28.712Z,19.65
2023-01-29T16:55:13.536Z,18.75
2023-01-29T16:57:40.549Z,19.58
2023-01-29T17:00:13.260Z,19.27
2023-01-29T17:02:40.003Z,18.35
2023-01-29T17:05:10.014Z,19.80
2023-01-29T17:07:37.033Z,19.63
2023-01-29T17:10:06.300Z,19.50
2023-01-29T17:12:33.653Z,19.75
2023-01-29T17:15:20.028Z,19.65
2023-01-29T17:17:48.836Z,20.00
2023-01-29T17:20:17.092Z,20.10
2023-01-29T17:22:44.041Z,21.50
2023-01-29T17:25:15.386Z,21.58
2023-01-29T17:27:43.798Z,20.77
2023-01-29T17:30:15.466Z,21.00
2023-01-29T17:32:43.602Z,21.27
2023-01-29T17:35:16.156Z,22.25
2023-01-29T17:37:43.456Z,21.27
2023-01-29T17:40:17.266Z,21.33
2023-01-29T17:42:43.983Z,21.30
2023-01-29T17:45:10.783Z,21.85
2023-01-29T17:47:37.279Z,23.35
2023-01-29T17:50:16.498Z,23.10
2023-01-29T17:52:43.043Z,22.33
2023-01-29T17:55:09.782Z,22.70
2023-01-29T17:57:36.423Z,22.35
2023-01-29T18:00:03.966Z,21.50
2023-01-29T18:02:30.541Z,19.98
2023-01-29T18:04:57.073Z,21.75
2023-01-29T18:07:23.703Z,22.00
2023-01-29T18:09:50.481Z,25.38
2023-01-29T18:12:17.096Z,22.52
2023-01-29T18:14:44.306Z,29.27
2023-01-29T18:17:10.906Z,27.48
2023-01-29T18:19:37.452Z,31.10
2023-01-29T18:22:04.041Z,24.15
2023-01-29T18:24:30.603Z,21.50
2023-01-29T18:26:57.208Z,23.05
2023-01-29T18:29:23.964Z,26.60
2023-01-29T18:31:50.762Z,28.13
2023-01-29T18:34:18.451Z,25.05
2023-01-29T18:36:44.910Z,25.25
2023-01-29T18:39:11.874Z,25.73
2023-01-29T18:41:38.930Z,24.67
2023-01-29T18:44:05.559Z,25.40
2023-01-29T18:46:32.272Z,27.23
2023-01-29T18:48:59.117Z,24.13
2023-01-29T18:51:26.160Z,23.67
2023-01-29T18:53:53.070Z,23.90
2023-01-29T18:56:19.821Z,23.52
2023-01-29T18:58:51.991Z,24.50
2023-01-29T19:01:19.854Z,23.83
2023-01-29T19:03:46.830Z,23.55
2023-01-29T19:06:13.340Z,24.20
2023-01-29T19:08:40.759Z,24.75
2023-01-29T19:11:07.405Z,34.00
2023-01-29T19:13:35.507Z,30.52
2023-01-29T19:16:27.602Z,25.58
2023-01-29T19:18:55.127Z,26.23
2023-01-29T19:21:22.389Z,24.33
2023-01-29T19:23:49.176Z,23.92
2023-01-29T19:26:17.715Z,23.33
2023-01-29T19:28:47.055Z,24.70
2023-01-29T19:31:14.896Z,23.35
2023-01-29T19:33:41.474Z,24.42
2023-01-29T19:36:08.869Z,23.33
2023-01-29T19:38:35.511Z,24.08
2023-01-29T19:41:02.263Z,25.38
2023-01-29T19:43:29.803Z,25.15
2023-01-29T19:46:00.512Z,27.45
2023-01-29T19:48:27.590Z,29.98
2023-01-29T19:50:59.083Z,30.17
2023-01-29T19:53:27.903Z,31.20
2023-01-29T19:56:00.211Z,32.78
2023-01-29T19:58:26.899Z,32.65
2023-01-29T20:01:06.034Z,32.67
2023-01-29T20:03:33.089Z,29.88
2023-01-29T20:06:04.806Z,28.85
2023-01-29T20:08:32.047Z,28.02
2023-01-29T20:10:59.156Z,27.20
2023-01-29T20:13:25.878Z,27.02
2023-01-29T20:15:52.507Z,25.77
2023-01-29T20:18:19.586Z,26.50
2023-01-29T20:20:48.214Z,26.27
2023-01-29T20:23:22.320Z,27.15
2023-01-29T20:25:59.417Z,28.33
2023-01-29T20:28:26.018Z,26.08
2023-01-29T20:30:53.062Z,26.48
2023-01-29T20:33:19.693Z,27.17
2023-01-29T20:35:46.228Z,28.33
2023-01-29T20:38:12.781Z,25.58
2023-01-29T20:40:39.351Z,25.80
2023-01-29T20:43:05.983Z,26.13
2023-01-29T20:45:33.037Z,28.95
2023-01-29T20:47:59.643Z,29.90
2023-01-29T20:50:26.124Z,31.60
2023-01-29T20:52:52.675Z,28.17
2023-01-29T20:55:19.286Z,28.77
2023-01-29T20:57:45.846Z,31.85
2023-01-29T21:00:33.193Z,27.23
2023-01-29T21:03:00.459Z,26.20
2023-01-29T21:05:27.326Z,28.85
2023-01-29T21:07:56.793Z,35.40
2023-01-29T21:10:23.845Z,36.70
2023-01-29T21:12:50.345Z,30.55
2023-01-29T21:15:16.833Z,28.38
2023-01-29T21:17:47.581Z,27.15
2023-01-29T21:20:16.064Z,27.92
2023-01-29T21:22:42.908Z,27.63
2023-01-29T21:25:10.075Z,26.80
2023-01-29T21:27:36.618Z,33.03
2023-01-29T21:30:03.985Z,45.05
2023-01-29T21:32:31.029Z,35.88
2023-01-29T21:34:57.537Z,33.88
2023-01-29T21:37:24.059Z,38.33
2023-01-29T21:39:50.574Z,35.10
2023-01-29T21:42:17.177Z,30.05
2023-01-29T21:44:43.725Z,28.85
2023-01-29T21:47:10.839Z,32.63
2023-01-29T21:49:46.839Z,31.10
2023-01-29T21:52:13.854Z,31.30
2023-01-29T21:54:41.354Z,33.15
2023-01-29T21:57:12.344Z,30.30
2023-01-29T21:59:39.380Z,32.80
2023-01-29T22:02:06.354Z,32.95
2023-01-29T22:04:33.459Z,32.38
2023-01-29T22:06:59.973Z,27.35
2023-01-29T22:09:27.260Z,25.27
2023-01-29T22:11:55.174Z,23.88
2023-01-29T22:14:21.941Z,21.88
2023-01-29T22:16:50.168Z,23.13
2023-01-29T22:19:16.670Z,22.92
2023-01-29T22:21:45.922Z,22.02
2023-01-29T22:24:12.833Z,22.08
2023-01-29T22:26:39.366Z,24.45
2023-01-29T22:29:05.854Z,23.55
2023-01-29T22:31:35.088Z,22.38
2023-01-29T22:34:03.572Z,26.38
2023-01-29T22:36:30.597Z,26.90
2023-01-29T22:38:57.463Z,23.75
2023-01-29T22:41:23.988Z,23.00
2023-01-29T22:43:50.937Z,22.80
2023-01-29T22:46:17.628Z,23.10
2023-01-29T22:48:44.497Z,22.83
2023-01-29T22:51:11.002Z,22.85
2023-01-29T22:53:39.335Z,22.42
2023-01-29T22:56:06.744Z,22.40
2023-01-29T22:58:33.705Z,25.88
2023-01-29T23:01:00.394Z,23.00
2023-01-29T23:03:26.896Z,21.63
2023-01-29T23:05:53.522Z,23.45
2023-01-29T23:08:20.019Z,23.33
2023-01-29T23:10:47.087Z,22.33
2023-01-29T23:13:13.701Z,22.27
2023-01-29T23:15:40.356Z,22.45
2023-01-29T23:18:06.884Z,21.63
2023-01-29T23:20:33.335Z,23.45
2023-01-29T23:22:59.971Z,22.27
2023-01-29T23:25:26.608Z,21.45
2023-01-29T23:27:56.662Z,21.83
2023-01-29T23:30:23.303Z,21.52
2023-01-29T23:32:50.315Z,20.15
2023-01-29T23:35:16.816Z,20.58
2023-01-29T23:37:43.631Z,20.08
2023-01-29T23:40:10.879Z,19.38
2023-01-29T23:42:38.994Z,19.20
2023-01-29T23:45:06.215Z,18.50
2023-01-29T23:47:32.721Z,20.17
2023-01-29T23:49:59.600Z,19.15
2023-01-29T23:52:26.246Z,19.98
2023-01-29T23:54:53.999Z,19.67
2023-01-29T23:57:20.479Z,19.45
2023-01-29T23:59:47.024Z,20.33
